createdAt,value
2023-02-12T00:04:32.337Z,50.20
2023-02-12T00:09:40.206Z,49.00
2023-02-12T00:14:47.920Z,74.40
2023-02-12T00:19:55.477Z,79.90
2023-02-12T00:25:03.195Z,56.90
2023-02-12T00:30:12.414Z,58.30
2023-02-12T00:35:20.066Z,32.80
2023-02-12T00:40:27.310Z,47.30
2023-02-12T00:50:41.460Z,54.70
2023-02-12T00:55:49.536Z,62.40
2023-02-12T01:00:58.098Z,67.00
2023-02-12T01:06:06.700Z,51.30
2023-02-12T01:11:16.459Z,55.10
2023-02-12T01:16:25.095Z,55.70
2023-02-12T01:21:34.388Z,47.00
2023-02-12T01:26:42.057Z,61.20
2023-02-12T01:31:49.734Z,59.90
2023-02-12T01:36:57.324Z,61.30
2023-02-12T01:42:06.359Z,59.20
2023-02-12T01:47:19.708Z,46.20
2023-02-12T01:52:30.138Z,45.50
2023-02-12T01:57:41.060Z,55.40
2023-02-12T02:02:50.754Z,49.30
2023-02-12T02:07:58.131Z,45.60
2023-02-12T02:18:36.575Z,51.50
2023-02-12T02:29:00.109Z,55.00
2023-02-12T02:34:17.151Z,49.80
2023-02-12T02:39:32.009Z,38.20
2023-02-12T02:44:45.044Z,40.30
2023-02-12T02:49:56.432Z,49.60
2023-02-12T02:55:10.236Z,43.10
2023-02-12T03:00:25.682Z,41.40
2023-02-12T03:05:38.810Z,45.70
2023-02-12T03:10:50.922Z,31.60
2023-02-12T03:16:05.626Z,57.80
2023-02-12T03:21:18.866Z,57.50
2023-02-12T03:26:33.015Z,49.40
2023-02-12T03:31:55.896Z,55.50
2023-02-12T03:37:07.298Z,31.10
2023-02-12T03:42:20.844Z,66.20
2023-02-12T03:47:37.361Z,61.20
2023-02-12T03:52:46.817Z,43.30
2023-02-12T03:58:01.023Z,39.30
2023-02-12T04:03:09.139Z,36.70
2023-02-12T04:08:17.180Z,32.40
2023-02-12T04:13:34.241Z,42.50
2023-02-12T04:18:45.413Z,36.60
2023-02-12T04:24:04.688Z,40.90
2023-02-12T04:29:23.238Z,33.80
2023-02-12T04:34:39.583Z,27.50
2023-02-12T04:39:49.883Z,30.00
2023-02-12T04:44:57.316Z,34.60
2023-02-12T04:50:04.686Z,40.90
2023-02-12T05:00:20.691Z,25.90
2023-02-12T05:05:28.489Z,22.80
2023-02-12T05:10:36.198Z,32.10
2023-02-12T05:15:44.706Z,25.10
2023-02-12T05:21:01.378Z,29.20
2023-02-12T05:26:12.526Z,25.30
2023-02-12T05:31:22.506Z,22.60
2023-02-12T05:36:30.585Z,14.90
2023-02-12T05:41:38.361Z,28.00
2023-02-12T05:46:46.325Z,22.80
2023-02-12T05:51:54.091Z,44.20
2023-02-12T05:57:01.537Z,23.70
2023-02-12T06:02:08.904Z,21.00
2023-02-12T06:07:16.254Z,20.80
2023-02-12T06:12:24.136Z,17.50
2023-02-12T06:17:31.494Z,30.10
2023-02-12T06:22:40.908Z,20.90
2023-02-12T06:27:48.290Z,20.30
2023-02-12T06:38:02.078Z,17.90
2023-02-12T06:43:09.447Z,15.30
2023-02-12T06:53:22.723Z,21.50
2023-02-12T06:58:30.118Z,20.20
2023-02-12T07:03:39.639Z,14.30
2023-02-12T07:08:48.072Z,12.90
2023-02-12T07:13:59.052Z,17.20
2023-02-12T07:19:06.575Z,8.50
2023-02-12T07:24:15.522Z,8.40
2023-02-12T07:29:22.716Z,14.50
2023-02-12T07:34:30.216Z,10.30
2023-02-12T07:39:37.828Z,16.40
2023-02-12T07:44:45.799Z,8.30
2023-02-12T07:49:53.434Z,14.10
2023-02-12T07:55:00.765Z,14.60
2023-02-12T08:00:11.011Z,9.30
2023-02-12T08:05:18.326Z,18.60
2023-02-12T08:10:25.523Z,11.90
2023-02-12T08:20:38.622Z,12.30
2023-02-12T08:25:46.748Z,11.30
2023-02-12T08:31:03.544Z,6.40
2023-02-12T08:36:15.014Z,11.90
2023-02-12T08:41:26.571Z,8.70
2023-02-12T08:46:36.125Z,5.10
2023-02-12T08:51:48.940Z,5.20
2023-02-12T08:57:00.424Z,8.30
2023-02-12T09:02:09.053Z,9.80
2023-02-12T09:07:16.291Z,9.50
2023-02-12T09:17:30.758Z,15.20
2023-02-12T09:22:40.068Z,5.40
2023-02-12T09:27:48.083Z,10.10
2023-02-12T09:32:56.301Z,8.70
2023-02-12T09:38:04.237Z,8.50
2023-02-12T09:43:19.131Z,10.30
2023-02-12T09:48:47.505Z,6.40
2023-02-12T09:54:02.942Z,9.50
2023-02-12T09:59:16.167Z,12.50
2023-02-12T10:04:24.921Z,9.10
2023-02-12T10:09:54.681Z,7.60
2023-02-12T10:15:16.299Z,12.10
2023-02-12T10:20:41.925Z,9.90
2023-02-12T10:25:54.394Z,8.50
2023-02-12T10:31:05.045Z,69.20
2023-02-12T10:36:24.810Z,10.70
2023-02-12T10:41:34.485Z,9.30
2023-02-12T10:46:43.228Z,12.30
2023-02-12T10:52:03.824Z,7.70
2023-02-12T10:57:15.784Z,10.00
2023-02-12T11:02:29.062Z,9.10
2023-02-12T11:07:49.917Z,11.90
2023-02-12T11:12:58.466Z,9.50
2023-02-12T11:19:37.929Z,12.30
2023-02-12T11:24:42.283Z,9.10
2023-02-12T11:29:49.198Z,10.30
2023-02-12T11:35:06.439Z,11.90
2023-02-12T11:40:19.749Z,11.40
2023-02-12T11:45:34.975Z,12.70
2023-02-12T11:50:46.111Z,9.90
2023-02-12T11:55:57.393Z,12.00
2023-02-12T12:01:09.138Z,12.90
2023-02-12T12:06:25.962Z,10.50
2023-02-12T12:11:38.417Z,16.30
2023-02-12T12:17:07.808Z,14.20
2023-02-12T12:22:23.282Z,14.40
2023-02-12T12:27:55.267Z,15.50
2023-02-12T12:33:03.541Z,16.10
2023-02-12T12:38:16.649Z,10.10
2023-02-12T12:43:31.059Z,12.20
2023-02-12T12:48:55.274Z,12.20
2023-02-12T12:54:20.472Z,16.20
2023-02-12T13:00:12.182Z,16.60
2023-02-12T13:05:53.078Z,13.50
2023-02-12T13:11:01.840Z,15.60
2023-02-12T13:20:49.022Z,17.50
2023-02-12T13:26:04.447Z,21.80
2023-02-12T13:36:45.396Z,18.90
2023-02-12T13:42:13.551Z,18.80
2023-02-12T13:47:30.337Z,12.20
2023-02-12T13:57:46.451Z,14.00
2023-02-12T14:02:54.925Z,15.60
2023-02-12T14:08:06.504Z,14.80
2023-02-12T14:13:22.132Z,16.00
2023-02-12T14:18:36.443Z,12.80
2023-02-12T14:23:44.290Z,18.30
2023-02-12T14:28:57.806Z,16.40
2023-02-12T14:34:49.935Z,18.40
2023-02-12T14:40:37.782Z,20.30
2023-02-12T14:45:45.198Z,17.60
2023-02-12T14:50:53.824Z,29.60
2023-02-12T14:56:02.576Z,23.10
2023-02-12T15:01:10.852Z,18.10
2023-02-12T15:06:22.567Z,21.70
2023-02-12T15:11:37.148Z,24.20
2023-02-12T15:17:00.032Z,17.70
2023-02-12T15:22:24.503Z,26.70
2023-02-12T15:27:32.792Z,22.70
2023-02-12T15:32:43.238Z,21.00
2023-02-12T15:37:51.980Z,26.30
2023-02-12T15:43:01.868Z,21.90
2023-02-12T15:48:15.353Z,23.00
2023-02-12T15:53:24.477Z,22.80
2023-02-12T15:58:34.312Z,24.40
2023-02-12T16:03:43.780Z,22.20
2023-02-12T16:08:56.999Z,21.30
2023-02-12T16:14:11.024Z,17.00
2023-02-12T16:19:26.010Z,14.20
2023-02-12T16:24:37.279Z,18.10
2023-02-12T16:29:52.034Z,21.20
2023-02-12T16:35:06.088Z,17.80
2023-02-12T16:40:24.184Z,18.50
2023-02-12T16:45:46.546Z,17.90
2023-02-12T16:50:58.426Z,21.30
2023-02-12T16:56:07.440Z,14.70
2023-02-12T17:01:19.537Z,16.10
2023-02-12T17:06:29.706Z,22.50
2023-02-12T17:11:36.861Z,17.50
2023-02-12T17:20:14.439Z,16.80
2023-02-12T17:25:22.017Z,20.80
2023-02-12T17:30:32.773Z,16.40
2023-02-12T17:35:40.949Z,23.90
2023-02-12T17:40:48.481Z,19.60
2023-02-12T17:45:58.194Z,22.20
2023-02-12T17:51:06.397Z,17.30
2023-02-12T17:56:15.424Z,22.30
2023-02-12T18:01:24.703Z,22.20
2023-02-12T18:06:34.600Z,20.20
2023-02-12T18:11:43.461Z,28.50
2023-02-12T18:21:12.312Z,20.80
2023-02-12T18:26:21.636Z,22.50
2023-02-12T18:31:30.140Z,25.10
2023-02-12T18:36:37.992Z,21.10
2023-02-12T18:41:46.743Z,21.90
2023-02-12T18:46:55.137Z,23.10
2023-02-12T18:52:04.014Z,19.90
2023-02-12T18:57:11.926Z,19.80
2023-02-12T19:02:19.633Z,22.00
2023-02-12T19:07:28.444Z,27.40
2023-02-12T19:12:36.359Z,21.20
2023-02-12T19:17:43.971Z,27.90
2023-02-12T19:22:51.696Z,36.30
2023-02-12T19:27:59.950Z,40.40
2023-02-12T19:33:08.455Z,26.00
2023-02-12T19:38:16.289Z,32.80
2023-02-12T19:43:24.259Z,41.20
2023-02-12T19:48:32.069Z,27.00
2023-02-12T19:53:40.110Z,29.60
2023-02-12T19:58:48.112Z,32.40
2023-02-12T20:03:57.133Z,38.80
2023-02-12T20:09:06.368Z,44.30
2023-02-12T20:14:15.454Z,46.30
2023-02-12T20:19:26.310Z,57.00
2023-02-12T20:24:35.756Z,47.40
2023-02-12T20:29:43.532Z,53.70
2023-02-12T20:34:54.478Z,47.50
2023-02-12T20:40:02.091Z,35.40
2023-02-12T20:45:10.514Z,45.10
2023-02-12T20:50:18.410Z,52.50
2023-02-12T20:55:25.880Z,59.20
2023-02-12T21:00:33.874Z,88.00
2023-02-12T21:05:42.614Z,82.80
2023-02-12T21:10:50.038Z,92.10
2023-02-12T21:16:07.288Z,83.60
2023-02-12T21:21:17.608Z,52.20
2023-02-12T21:26:28.721Z,66.60
2023-02-12T21:31:39.137Z,80.90
2023-02-12T21:36:48.685Z,32.40
2023-02-12T21:41:58.186Z,79.10
2023-02-12T21:47:07.534Z,77.50
2023-02-12T21:52:15.303Z,94.30
2023-02-12T21:57:23.277Z,84.80
2023-02-12T22:02:31.068Z,90.40
2023-02-12T22:07:38.613Z,92.30
2023-02-12T22:12:46.006Z,80.80
2023-02-12T22:17:53.990Z,93.30
2023-02-12T22:28:30.957Z,94.00
2023-02-12T22:33:36.627Z,85.50
2023-02-12T22:38:41.671Z,69.10
2023-02-12T22:43:45.972Z,65.80
2023-02-12T22:48:50.112Z,101.30
2023-02-12T22:53:55.829Z,84.30
2023-02-12T22:59:02.052Z,77.90
2023-02-12T23:04:06.727Z,80.50
2023-02-12T23:09:13.819Z,80.70
2023-02-12T23:14:18.330Z,82.30
2023-02-12T23:19:22.560Z,92.80
2023-02-12T23:24:27.051Z,88.10
2023-02-12T23:29:31.073Z,98.00
2023-02-12T23:34:34.913Z,64.50
2023-02-12T23:39:38.998Z,79.30
2023-02-12T23:44:42.725Z,73.40
2023-02-12T23:49:46.443Z,72.80
2023-02-12T23:54:50.586Z,103.50
2023-02-12T23:59:54.848Z,71.00
